Time;durP1;ratioP1;P1;durP2;ratioP2;P2;SDS_P1;SDS_P2;PMS_P1;PMS_P2;Temp;Humidity;BMP_temperature;BMP_pressure;BME280_temperature;BME280_humidity;BME280_pressure;Samples;Min_cycle;Max_cycle;Signal;HPM_P1;HPM_P2
2021/10/19 00:01:35;;;;;;;24.52;10.32;;;;;;;;;;5092925;28;20056;-86
2021/10/19 00:04:02;;;;;;;24.35;10.32;;;;;;;;;;5091940;28;20035;-85
2021/10/19 00:06:28;;;;;;;21.67;10.63;;;;;;;;;;5093721;28;20036;-85
2021/10/19 00:08:54;;;;;;;24.08;10.30;;;;;;;;;;5091847;28;20491;-85
2021/10/19 00:11:20;;;;;;;21.55;9.63;;;;;;;;;;5093170;28;20072;-85
2021/10/19 00:13:47;;;;;;;15.88;7.82;;;;;;;;;;5093665;28;20421;-85
2021/10/19 00:16:13;;;;;;;11.93;6.00;;;;;;;;;;5091880;28;20084;-85
2021/10/19 00:18:39;;;;;;;13.88;6.18;;;;;;;;;;5091785;28;20105;-85
2021/10/19 00:21:06;;;;;;;9.32;5.43;;;;;;;;;;5092999;28;20016;-85
2021/10/19 00:23:32;;;;;;;12.20;5.72;;;;;;;;;;5092990;28;20046;-85
2021/10/19 00:25:58;;;;;;;10.00;4.20;;;;;;;;;;5091670;28;20035;-85
2021/10/19 00:28:25;;;;;;;8.75;4.07;;;;;;;;;;5092888;28;20028;-85
2021/10/19 00:30:51;;;;;;;10.20;4.85;;;;;;;;;;5093566;28;20031;-86
2021/10/19 00:33:17;;;;;;;7.05;3.65;;;;;;;;;;5091745;28;20124;-84
2021/10/19 00:35:43;;;;;;;9.02;4.07;;;;;;;;;;5094793;28;20085;-85
2021/10/19 00:38:09;;;;;;;11.40;4.60;;;;;;;;;;5095273;28;20119;-85
2021/10/19 00:40:36;;;;;;;12.40;4.72;;;;;;;;;;5095514;28;20078;-86
2021/10/19 00:43:03;;;;;;;8.20;4.15;;;;;;;;;;5095155;28;20491;-86
2021/10/19 00:45:29;;;;;;;9.88;3.83;;;;;;;;;;5095098;28;20115;-86
2021/10/19 00:47:56;;;;;;;15.77;4.43;;;;;;;;;;5095014;28;20036;-87
2021/10/19 00:50:23;;;;;;;11.80;3.90;;;;;;;;;;5095094;28;20026;-85
2021/10/19 00:52:50;;;;;;;8.85;4.22;;;;;;;;;;5096300;28;20028;-85
2021/10/19 00:55:18;;;;;;;10.82;4.47;;;;;;;;;;5096255;28;20107;-85
2021/10/19 00:57:45;;;;;;;8.85;4.22;;;;;;;;;;5094803;28;20027;-85
2021/10/19 01:00:12;;;;;;;9.38;4.03;;;;;;;;;;5096653;28;20024;-85
2021/10/19 01:02:41;;;;;;;10.07;4.05;;;;;;;;;;5095994;28;20051;-86
2021/10/19 01:05:07;;;;;;;9.75;3.92;;;;;;;;;;5094753;28;20024;-84
2021/10/19 01:07:33;;;;;;;10.93;4.35;;;;;;;;;;5094594;28;20043;-86
2021/10/19 01:10:01;;;;;;;7.85;3.33;;;;;;;;;;5094608;28;20020;-86
2021/10/19 01:12:27;;;;;;;10.82;4.45;;;;;;;;;;5094515;28;20397;-85
2021/10/19 01:14:53;;;;;;;7.20;3.35;;;;;;;;;;5094597;28;20020;-86
2021/10/19 01:17:20;;;;;;;6.93;3.50;;;;;;;;;;5094519;28;20394;-86
2021/10/19 01:19:50;;;;;;;9.05;3.63;;;;;;;;;;5095784;28;20024;-85
2021/10/19 01:22:16;;;;;;;9.55;4.25;;;;;;;;;;5094370;28;20111;-85
2021/10/19 01:24:45;;;;;;;9.30;4.82;;;;;;;;;;5094402;28;20388;-85
2021/10/19 01:27:12;;;;;;;6.32;3.08;;;;;;;;;;5095448;28;20039;-85
2021/10/19 01:29:39;;;;;;;7.53;3.42;;;;;;;;;;5094473;28;20123;-85
2021/10/19 01:32:05;;;;;;;8.00;4.07;;;;;;;;;;5094233;28;20027;-87
2021/10/19 01:34:35;;;;;;;10.45;3.97;;;;;;;;;;5096058;28;20024;-85
2021/10/19 01:37:02;;;;;;;10.65;4.25;;;;;;;;;;5094156;28;20484;-86
2021/10/19 01:39:28;;;;;;;6.97;3.55;;;;;;;;;;5095865;28;20044;-86
2021/10/19 01:41:54;;;;;;;10.23;4.22;;;;;;;;;;5094077;28;20024;-85
2021/10/19 01:44:21;;;;;;;9.15;3.75;;;;;;;;;;5093856;28;20119;-84
2021/10/19 01:46:47;;;;;;;8.38;3.78;;;;;;;;;;5093540;28;20024;-84
2021/10/19 01:49:13;;;;;;;9.18;4.32;;;;;;;;;;5093988;28;20031;-85
2021/10/19 01:51:40;;;;;;;10.68;4.65;;;;;;;;;;5093898;28;20077;-85
2021/10/19 01:54:06;;;;;;;8.18;4.32;;;;;;;;;;5094128;28;20067;-85
2021/10/19 01:56:32;;;;;;;12.10;4.80;;;;;;;;;;5093799;28;20086;-85
2021/10/19 01:58:59;;;;;;;17.80;5.80;;;;;;;;;;5093620;28;20028;-85
2021/10/19 02:01:25;;;;;;;9.20;5.35;;;;;;;;;;5095060;28;20048;-85
2021/10/19 02:03:51;;;;;;;10.75;4.55;;;;;;;;;;5094794;28;20047;-85
2021/10/19 02:06:18;;;;;;;10.57;4.35;;;;;;;;;;5095278;28;20040;-86
2021/10/19 02:08:44;;;;;;;10.38;4.03;;;;;;;;;;5093634;28;20048;-86
2021/10/19 02:11:10;;;;;;;10.75;5.03;;;;;;;;;;5093462;28;20077;-85
2021/10/19 02:13:36;;;;;;;10.20;4.82;;;;;;;;;;5093481;28;20085;-85
2021/10/19 02:16:03;;;;;;;11.48;6.07;;;;;;;;;;5094675;28;20024;-85
2021/10/19 02:18:29;;;;;;;11.48;5.57;;;;;;;;;;5093345;28;20384;-85
2021/10/19 02:20:55;;;;;;;10.57;4.57;;;;;;;;;;5095040;28;20024;-85
2021/10/19 02:23:21;;;;;;;12.15;5.63;;;;;;;;;;5093151;28;20389;-85
2021/10/19 02:25:48;;;;;;;13.38;5.57;;;;;;;;;;5094364;28;20051;-85
2021/10/19 02:28:14;;;;;;;11.35;5.38;;;;;;;;;;5093165;28;20370;-85
2021/10/19 02:30:40;;;;;;;15.05;6.18;;;;;;;;;;5093223;28;20110;-85
2021/10/19 02:33:06;;;;;;;11.77;5.40;;;;;;;;;;5093042;28;20027;-86
2021/10/19 02:35:33;;;;;;;11.18;5.55;;;;;;;;;;5093019;28;20028;-85
2021/10/19 02:37:59;;;;;;;10.35;5.07;;;;;;;;;;5093033;28;20031;-85
2021/10/19 02:40:26;;;;;;;10.88;5.32;;;;;;;;;;5092939;28;20020;-85
2021/10/19 02:42:52;;;;;;;16.80;6.15;;;;;;;;;;5092902;28;20022;-85
2021/10/19 02:45:19;;;;;;;13.98;4.68;;;;;;;;;;5092956;28;20020;-86
2021/10/19 02:47:45;;;;;;;9.13;4.88;;;;;;;;;;5092658;28;20032;-85
2021/10/19 02:50:12;;;;;;;14.18;4.90;;;;;;;;;;5094583;28;20049;-86
2021/10/19 02:52:39;;;;;;;12.73;5.13;;;;;;;;;;5092751;28;20028;-85
2021/10/19 02:55:07;;;;;;;10.70;4.72;;;;;;;;;;5092755;28;20026;-86
2021/10/19 02:57:33;;;;;;;9.00;4.25;;;;;;;;;;5093225;28;20063;-86
2021/10/19 02:59:59;;;;;;;11.93;5.00;;;;;;;;;;5092543;28;20024;-85
2021/10/19 03:02:25;;;;;;;6.88;3.92;;;;;;;;;;5093785;28;20060;-85
2021/10/19 03:04:52;;;;;;;13.00;4.10;;;;;;;;;;5092472;28;20021;-85
2021/10/19 03:07:18;;;;;;;9.30;4.32;;;;;;;;;;5094039;28;20063;-86
2021/10/19 03:09:45;;;;;;;11.13;3.70;;;;;;;;;;5092762;28;20384;-85
2021/10/19 03:12:11;;;;;;;8.63;3.60;;;;;;;;;;5094176;28;20373;-85
2021/10/19 03:14:38;;;;;;;9.88;3.38;;;;;;;;;;5093719;28;20056;-85
2021/10/19 03:17:04;;;;;;;8.80;4.15;;;;;;;;;;5092415;28;20038;-85
2021/10/19 03:19:30;;;;;;;8.55;3.63;;;;;;;;;;5092407;28;20058;-86
2021/10/19 03:21:56;;;;;;;12.45;4.18;;;;;;;;;;5092358;28;20020;-86
2021/10/19 03:24:22;;;;;;;8.68;3.55;;;;;;;;;;5092314;28;20028;-84
2021/10/19 03:26:49;;;;;;;10.27;3.92;;;;;;;;;;5092225;28;20042;-84
2021/10/19 03:29:15;;;;;;;8.15;4.45;;;;;;;;;;5092198;28;20038;-85
2021/10/19 03:31:41;;;;;;;8.48;4.18;;;;;;;;;;5092322;28;20032;-86
2021/10/19 03:34:08;;;;;;;7.00;3.22;;;;;;;;;;5092259;28;20440;-85
2021/10/19 03:36:34;;;;;;;12.63;3.95;;;;;;;;;;5092134;28;20119;-84
2021/10/19 03:39:00;;;;;;;5.95;3.13;;;;;;;;;;5093435;28;20484;-84
2021/10/19 03:41:27;;;;;;;5.90;3.25;;;;;;;;;;5092223;28;20086;-85
2021/10/19 03:43:53;;;;;;;10.27;3.85;;;;;;;;;;5092165;28;20123;-84
2021/10/19 03:46:19;;;;;;;7.40;3.40;;;;;;;;;;5092131;28;20568;-84
2021/10/19 03:48:46;;;;;;;6.50;3.03;;;;;;;;;;5092127;28;20472;-85
2021/10/19 03:51:12;;;;;;;8.15;3.50;;;;;;;;;;5093908;28;20028;-85
2021/10/19 03:53:38;;;;;;;8.18;3.78;;;;;;;;;;5093314;28;20455;-84
2021/10/19 03:56:06;;;;;;;6.72;3.42;;;;;;;;;;5093829;28;20032;-85
2021/10/19 03:58:36;;;;;;;6.72;2.83;;;;;;;;;;5092549;28;20024;-83
2021/10/19 04:01:03;;;;;;;8.52;3.38;;;;;;;;;;5094632;28;20052;-85
2021/10/19 04:03:29;;;;;;;8.45;3.45;;;;;;;;;;5092031;28;20025;-85
2021/10/19 04:05:55;;;;;;;10.48;3.92;;;;;;;;;;5091943;28;20036;-87
2021/10/19 04:08:22;;;;;;;11.93;5.90;;;;;;;;;;5094402;28;20388;-85
2021/10/19 04:10:48;;;;;;;9.75;5.07;;;;;;;;;;5095858;28;20032;-86
2021/10/19 04:13:14;;;;;;;9.75;4.82;;;;;;;;;;5095694;28;20536;-86
2021/10/19 04:15:40;;;;;;;8.80;4.35;;;;;;;;;;5095774;28;20024;-84
2021/10/19 04:18:07;;;;;;;12.00;4.22;;;;;;;;;;5095578;28;20025;-85
2021/10/19 04:20:33;;;;;;;11.52;5.28;;;;;;;;;;5095746;28;20024;-85
2021/10/19 04:22:59;;;;;;;9.38;4.00;;;;;;;;;;5095550;28;20125;-85
2021/10/19 04:25:26;;;;;;;12.75;4.07;;;;;;;;;;5097324;28;20051;-85
2021/10/19 04:27:52;;;;;;;20.88;5.95;;;;;;;;;;5095751;28;20085;-85
2021/10/19 04:30:20;;;;;;;13.40;7.45;;;;;;;;;;5096643;28;20055;-85
2021/10/19 04:32:46;;;;;;;12.63;6.07;;;;;;;;;;5096587;28;20472;-86
2021/10/19 04:35:13;;;;;;;17.85;7.15;;;;;;;;;;5095335;28;20059;-85
2021/10/19 04:37:40;;;;;;;16.13;7.28;;;;;;;;;;5095345;28;20032;-85
2021/10/19 04:40:06;;;;;;;14.82;6.88;;;;;;;;;;5097085;28;20149;-85
2021/10/19 04:42:37;;;;;;;16.70;8.27;;;;;;;;;;5096941;28;20028;-86
2021/10/19 04:45:04;;;;;;;13.50;6.88;;;;;;;;;;5095261;28;20028;-86
2021/10/19 04:47:30;;;;;;;16.50;6.35;;;;;;;;;;5095004;28;20036;-86
2021/10/19 04:49:58;;;;;;;10.93;5.65;;;;;;;;;;5095128;28;20020;-84
2021/10/19 04:52:28;;;;;;;12.98;6.03;;;;;;;;;;5095659;28;20077;-84
2021/10/19 04:54:54;;;;;;;16.08;6.35;;;;;;;;;;5094800;28;20020;-83
2021/10/19 04:57:20;;;;;;;11.55;6.13;;;;;;;;;;5094811;28;20030;-85
2021/10/19 04:59:47;;;;;;;15.23;6.45;;;;;;;;;;5094863;28;20021;-84
2021/10/19 05:02:13;;;;;;;18.63;7.55;;;;;;;;;;5094536;28;20572;-84
2021/10/19 05:04:39;;;;;;;21.17;6.53;;;;;;;;;;5094679;28;20077;-83
2021/10/19 05:07:06;;;;;;;20.60;11.55;;;;;;;;;;5094539;28;20078;-83
2021/10/19 05:09:33;;;;;;;20.67;11.57;;;;;;;;;;5095841;28;20024;-82
2021/10/19 05:11:59;;;;;;;27.05;9.50;;;;;;;;;;5094515;28;20035;-83
2021/10/19 05:14:25;;;;;;;15.10;8.05;;;;;;;;;;5095744;28;20016;-84
2021/10/19 05:16:51;;;;;;;15.50;8.13;;;;;;;;;;5094400;28;20028;-84
2021/10/19 05:19:18;;;;;;;21.25;9.73;;;;;;;;;;5095781;28;20020;-83
2021/10/19 05:21:44;;;;;;;23.45;8.88;;;;;;;;;;5093316;28;20070;-82
2021/10/19 05:24:10;;;;;;;29.63;8.13;;;;;;;;;;5090366;28;20028;-82
2021/10/19 05:26:36;;;;;;;15.68;7.97;;;;;;;;;;5093914;28;20059;-82
2021/10/19 05:29:02;;;;;;;16.15;8.10;;;;;;;;;;5094079;28;20052;-81
2021/10/19 05:31:29;;;;;;;21.67;9.25;;;;;;;;;;5095930;28;20028;-86
2021/10/19 05:33:55;;;;;;;20.50;9.32;;;;;;;;;;5094610;28;20111;-87
2021/10/19 05:36:21;;;;;;;22.60;10.00;;;;;;;;;;5095711;28;20035;-88
2021/10/19 05:38:48;;;;;;;21.65;10.18;;;;;;;;;;5094682;28;20032;-89
2021/10/19 05:41:16;;;;;;;23.40;10.63;;;;;;;;;;5094643;28;20385;-90
2021/10/19 05:43:45;;;;;;;23.75;11.10;;;;;;;;;;5095766;28;20032;-87
2021/10/19 05:46:11;;;;;;;22.88;9.52;;;;;;;;;;5095336;28;20028;-85
2021/10/19 05:48:37;;;;;;;18.75;8.80;;;;;;;;;;5093991;28;20423;-90
2021/10/19 05:51:03;;;;;;;18.63;7.90;;;;;;;;;;5094395;28;20020;-90
2021/10/19 05:53:29;;;;;;;23.35;8.57;;;;;;;;;;5094401;28;20028;-92
2021/10/19 05:55:56;;;;;;;15.98;7.15;;;;;;;;;;5095774;28;20028;-92
2021/10/19 05:58:22;;;;;;;18.58;8.20;;;;;;;;;;5094600;28;20027;-88
2021/10/19 06:00:51;;;;;;;22.63;9.50;;;;;;;;;;5095768;28;20500;-88
2021/10/19 06:03:21;;;;;;;39.00;15.70;;;;;;;;;;5094128;28;20117;-88
2021/10/19 06:05:47;;;;;;;35.30;13.98;;;;;;;;;;5096366;28;20024;-88
2021/10/19 06:08:13;;;;;;;29.10;11.13;;;;;;;;;;5094830;28;20481;-87
2021/10/19 06:10:39;;;;;;;29.73;10.65;;;;;;;;;;5093664;28;20026;-87
2021/10/19 06:13:05;;;;;;;25.92;12.93;;;;;;;;;;5093544;28;20027;-89
2021/10/19 06:15:32;;;;;;;34.03;11.23;;;;;;;;;;5093660;28;20392;-88
2021/10/19 06:17:58;;;;;;;28.85;12.02;;;;;;;;;;5094704;28;20043;-89
2021/10/19 06:20:24;;;;;;;22.13;10.05;;;;;;;;;;5093923;28;20024;-92
2021/10/19 06:22:50;;;;;;;28.70;11.07;;;;;;;;;;5094075;28;20051;-90
2021/10/19 06:25:16;;;;;;;35.00;12.82;;;;;;;;;;5093479;28;20099;-87
2021/10/19 06:27:42;;;;;;;51.70;14.60;;;;;;;;;;5094734;28;20515;-89
2021/10/19 06:30:09;;;;;;;29.58;13.93;;;;;;;;;;5094570;28;20020;-91
2021/10/19 06:32:37;;;;;;;28.63;13.60;;;;;;;;;;5094700;28;20028;-89
2021/10/19 06:35:03;;;;;;;28.92;13.32;;;;;;;;;;5094614;28;20035;-90
2021/10/19 06:37:30;;;;;;;36.35;16.02;;;;;;;;;;5093197;28;20020;-91
2021/10/19 06:39:56;;;;;;;27.13;14.13;;;;;;;;;;5093144;28;20031;-87
2021/10/19 06:42:22;;;;;;;33.80;14.68;;;;;;;;;;5094586;28;20024;-91
2021/10/19 06:44:48;;;;;;;39.05;13.73;;;;;;;;;;5094123;28;20082;-90
2021/10/19 06:47:14;;;;;;;40.40;14.90;;;;;;;;;;5092767;28;20173;-88
2021/10/19 06:49:40;;;;;;;30.90;14.07;;;;;;;;;;5092755;28;20049;-91
2021/10/19 06:52:06;;;;;;;33.40;15.30;;;;;;;;;;5093013;28;20046;-87
2021/10/19 06:54:32;;;;;;;36.45;14.10;;;;;;;;;;5092494;28;20477;-88
2021/10/19 06:57:01;;;;;;;34.92;13.60;;;;;;;;;;5098316;28;20047;-86
2021/10/19 06:59:27;;;;;;;30.70;13.10;;;;;;;;;;5093299;28;20537;-87
2021/10/19 07:01:53;;;;;;;37.22;14.05;;;;;;;;;;5092557;28;20040;-86
2021/10/19 07:04:20;;;;;;;28.70;13.00;;;;;;;;;;5092495;28;20461;-87
2021/10/19 07:06:46;;;;;;;29.27;13.80;;;;;;;;;;5092251;28;20131;-85
2021/10/19 07:09:12;;;;;;;27.33;13.60;;;;;;;;;;5092093;28;20035;-86
2021/10/19 07:11:38;;;;;;;28.83;15.02;;;;;;;;;;5092117;28;20489;-87
2021/10/19 07:14:04;;;;;;;29.58;14.38;;;;;;;;;;5091712;28;20020;-86
2021/10/19 07:16:30;;;;;;;36.67;17.45;;;;;;;;;;5092203;28;20049;-86
2021/10/19 07:18:57;;;;;;;56.72;23.77;;;;;;;;;;5092395;28;20055;-86
2021/10/19 07:21:23;;;;;;;353.92;144.07;;;;;;;;;;5091992;28;20043;-86
2021/10/19 07:23:49;;;;;;;161.48;61.10;;;;;;;;;;5092166;28;20384;-86
2021/10/19 07:26:15;;;;;;;397.58;157.15;;;;;;;;;;5092101;28;20024;-86
2021/10/19 07:28:41;;;;;;;128.15;48.97;;;;;;;;;;5091959;28;20547;-86
2021/10/19 07:31:08;;;;;;;161.50;65.03;;;;;;;;;;5092209;28;20030;-86
2021/10/19 07:33:34;;;;;;;94.28;39.28;;;;;;;;;;5092382;28;20036;-87
2021/10/19 07:36:00;;;;;;;110.22;43.00;;;;;;;;;;5092055;28;20473;-85
2021/10/19 07:38:26;;;;;;;41.20;21.08;;;;;;;;;;5093363;28;20024;-87
2021/10/19 07:40:52;;;;;;;36.15;17.42;;;;;;;;;;5093427;28;20024;-86
2021/10/19 07:43:18;;;;;;;36.60;15.52;;;;;;;;;;5092983;28;20035;-85
2021/10/19 07:45:44;;;;;;;33.38;16.90;;;;;;;;;;5095912;28;20058;-85
2021/10/19 07:48:10;;;;;;;48.03;24.10;;;;;;;;;;5095954;28;20040;-84
2021/10/19 07:50:36;;;;;;;44.20;21.23;;;;;;;;;;5095481;28;20043;-84
2021/10/19 07:53:02;;;;;;;33.88;16.48;;;;;;;;;;5096201;28;20016;-83
2021/10/19 07:55:33;;;;;;;40.50;15.15;;;;;;;;;;5097315;28;20028;-84
2021/10/19 07:57:59;;;;;;;30.42;15.73;;;;;;;;;;5097155;28;20050;-84
2021/10/19 08:00:26;;;;;;;29.48;15.43;;;;;;;;;;5096848;28;20107;-84
2021/10/19 08:02:53;;;;;;;35.08;15.73;;;;;;;;;;5095368;28;20036;-83
2021/10/19 08:05:19;;;;;;;28.85;14.52;;;;;;;;;;5096829;28;20450;-86
2021/10/19 08:07:47;;;;;;;27.75;13.98;;;;;;;;;;5095615;28;20459;-83
2021/10/19 08:10:14;;;;;;;30.50;14.48;;;;;;;;;;5095329;28;20468;-83
2021/10/19 08:12:41;;;;;;;28.33;14.98;;;;;;;;;;5095271;28;20020;-83
2021/10/19 08:15:07;;;;;;;33.45;14.77;;;;;;;;;;5096782;28;20149;-82
2021/10/19 08:17:33;;;;;;;27.00;14.35;;;;;;;;;;5095950;28;20024;-82
2021/10/19 08:19:59;;;;;;;27.83;14.32;;;;;;;;;;5095496;28;20020;-82
2021/10/19 08:22:29;;;;;;;25.35;14.85;;;;;;;;;;5096692;28;20481;-84
2021/10/19 08:24:56;;;;;;;26.90;15.50;;;;;;;;;;5095443;28;20024;-82
2021/10/19 08:27:24;;;;;;;24.27;13.55;;;;;;;;;;5095143;28;20036;-83
2021/10/19 08:29:50;;;;;;;26.90;15.98;;;;;;;;;;5096430;28;20032;-82
2021/10/19 08:32:16;;;;;;;30.90;17.00;;;;;;;;;;5096328;28;20020;-83
2021/10/19 08:34:42;;;;;;;26.70;15.35;;;;;;;;;;5095179;28;20127;-82
2021/10/19 08:37:08;;;;;;;26.00;15.20;;;;;;;;;;5095031;28;20020;-82
2021/10/19 08:39:34;;;;;;;26.88;17.55;;;;;;;;;;5096465;28;20444;-82
2021/10/19 08:42:01;;;;;;;27.23;17.55;;;;;;;;;;5095002;28;20115;-83
2021/10/19 08:44:27;;;;;;;29.17;17.05;;;;;;;;;;5096253;28;20027;-82
2021/10/19 08:46:54;;;;;;;21.55;14.30;;;;;;;;;;5094885;28;20085;-82
2021/10/19 08:49:20;;;;;;;25.77;14.60;;;;;;;;;;5094658;28;20024;-82
2021/10/19 08:51:46;;;;;;;26.20;15.73;;;;;;;;;;5094843;28;20102;-83
2021/10/19 08:54:12;;;;;;;25.92;14.88;;;;;;;;;;5094072;28;20077;-82
2021/10/19 08:56:39;;;;;;;24.63;14.50;;;;;;;;;;5094029;28;20389;-83
2021/10/19 08:59:06;;;;;;;25.45;15.50;;;;;;;;;;5094682;28;20035;-83
2021/10/19 09:01:33;;;;;;;27.42;15.30;;;;;;;;;;5095699;28;20055;-83
2021/10/19 09:03:59;;;;;;;24.38;16.60;;;;;;;;;;5094606;28;20028;-83
2021/10/19 09:06:36;;;;;;;28.40;16.70;;;;;;;;;;5094547;28;20024;-82
2021/10/19 09:09:06;;;;;;;24.65;14.43;;;;;;;;;;5094448;28;20055;-82
2021/10/19 09:11:38;;;;;;;29.33;16.80;;;;;;;;;;5094501;28;20099;-83
2021/10/19 09:14:05;;;;;;;27.90;14.95;;;;;;;;;;5095848;28;20032;-82
2021/10/19 09:16:44;;;;;;;30.25;15.32;;;;;;;;;;5094944;28;20024;-82
2021/10/19 09:19:11;;;;;;;23.48;13.88;;;;;;;;;;5094249;28;20024;-82
2021/10/19 09:21:42;;;;;;;23.77;13.93;;;;;;;;;;5094300;28;20036;-82
2021/10/19 09:24:17;;;;;;;24.00;13.75;;;;;;;;;;5094381;28;20028;-82
2021/10/19 09:26:54;;;;;;;26.52;14.82;;;;;;;;;;5094082;28;20051;-82
2021/10/19 09:29:20;;;;;;;23.50;13.43;;;;;;;;;;5095777;28;20023;-81
2021/10/19 09:31:50;;;;;;;34.95;15.88;;;;;;;;;;5095233;28;20024;-82
2021/10/19 09:34:16;;;;;;;28.95;14.35;;;;;;;;;;5095336;28;20024;-83
2021/10/19 09:36:42;;;;;;;29.00;14.75;;;;;;;;;;5093932;28;20495;-82
2021/10/19 09:39:08;;;;;;;25.15;14.20;;;;;;;;;;5095704;28;20020;-82
2021/10/19 09:41:44;;;;;;;21.88;13.07;;;;;;;;;;5095492;28;20047;-81
2021/10/19 09:44:11;;;;;;;25.48;13.68;;;;;;;;;;5093868;28;20028;-81
2021/10/19 09:46:38;;;;;;;24.55;13.15;;;;;;;;;;5093450;28;20036;-80
2021/10/19 09:49:04;;;;;;;19.98;12.32;;;;;;;;;;5095598;28;20477;-81
2021/10/19 09:51:33;;;;;;;19.45;12.23;;;;;;;;;;5094090;28;20120;-83
2021/10/19 09:53:59;;;;;;;22.98;11.32;;;;;;;;;;5099304;28;20024;-82
2021/10/19 09:56:26;;;;;;;19.38;11.18;;;;;;;;;;5093705;28;20100;-83
2021/10/19 09:58:52;;;;;;;17.75;10.68;;;;;;;;;;5093513;28;20024;-84
2021/10/19 10:01:18;;;;;;;17.98;10.65;;;;;;;;;;5093230;28;20079;-84
2021/10/19 10:03:50;;;;;;;16.95;10.35;;;;;;;;;;5093433;28;20098;-84
2021/10/19 10:06:18;;;;;;;16.97;9.93;;;;;;;;;;5093179;28;20035;-84
2021/10/19 10:08:45;;;;;;;15.77;9.38;;;;;;;;;;5093285;28;20028;-83
2021/10/19 10:11:13;;;;;;;16.77;9.57;;;;;;;;;;5094469;28;20377;-85
2021/10/19 10:13:39;;;;;;;14.55;7.28;;;;;;;;;;5093291;28;20024;-86
2021/10/19 10:16:11;;;;;;;17.13;6.72;;;;;;;;;;5093246;28;20369;-85
2021/10/19 10:18:37;;;;;;;18.67;7.20;;;;;;;;;;5093102;28;20113;-85
2021/10/19 10:21:14;;;;;;;16.15;7.50;;;;;;;;;;5093197;28;20032;-86
2021/10/19 10:23:42;;;;;;;17.95;8.10;;;;;;;;;;5093119;28;20511;-85
2021/10/19 10:26:11;;;;;;;10.93;6.45;;;;;;;;;;5092801;28;20079;-85
2021/10/19 10:28:37;;;;;;;13.57;7.10;;;;;;;;;;5092956;28;20392;-85
2021/10/19 10:31:17;;;;;;;12.27;7.40;;;;;;;;;;5093034;28;20024;-85
2021/10/19 10:33:45;;;;;;;11.85;6.93;;;;;;;;;;5092984;28;20050;-85
2021/10/19 10:36:12;;;;;;;14.48;7.25;;;;;;;;;;5092898;28;20054;-86
2021/10/19 10:38:38;;;;;;;9.82;6.40;;;;;;;;;;5092783;28;20039;-86
2021/10/19 10:41:15;;;;;;;11.98;6.88;;;;;;;;;;5092873;28;20034;-86
2021/10/19 10:43:42;;;;;;;12.55;6.80;;;;;;;;;;5092770;28;20031;-85
2021/10/19 10:46:19;;;;;;;11.23;6.07;;;;;;;;;;5092654;28;20067;-86
2021/10/19 10:48:45;;;;;;;12.10;6.60;;;;;;;;;;5092664;28;20032;-85
2021/10/19 10:51:12;;;;;;;10.98;6.80;;;;;;;;;;5092590;28;20032;-85
2021/10/19 10:53:39;;;;;;;11.68;6.57;;;;;;;;;;5092733;28;20027;-85
2021/10/19 10:56:07;;;;;;;9.45;6.32;;;;;;;;;;5093916;28;20087;-85
2021/10/19 10:58:35;;;;;;;10.90;6.20;;;;;;;;;;5092536;28;20032;-85
2021/10/19 11:01:13;;;;;;;12.60;6.70;;;;;;;;;;5092262;28;20055;-85
2021/10/19 11:03:39;;;;;;;13.32;7.05;;;;;;;;;;5092612;28;20020;-85
2021/10/19 11:06:05;;;;;;;10.80;6.47;;;;;;;;;;5092431;28;20043;-85
2021/10/19 11:08:36;;;;;;;9.55;6.60;;;;;;;;;;5092492;28;20392;-85
2021/10/19 11:11:04;;;;;;;16.02;6.93;;;;;;;;;;5093755;28;20046;-85
2021/10/19 11:13:30;;;;;;;9.60;6.28;;;;;;;;;;5092564;28;20111;-85
2021/10/19 11:15:57;;;;;;;13.43;6.95;;;;;;;;;;5093572;28;20028;-84
2021/10/19 11:18:25;;;;;;;11.35;6.95;;;;;;;;;;5091504;28;20031;-85
2021/10/19 11:20:55;;;;;;;10.80;6.85;;;;;;;;;;5092208;28;20050;-85
2021/10/19 11:23:22;;;;;;;9.82;6.38;;;;;;;;;;5093386;28;20503;-85
2021/10/19 11:25:48;;;;;;;12.40;6.53;;;;;;;;;;5092279;28;20028;-85
2021/10/19 11:28:14;;;;;;;12.70;6.78;;;;;;;;;;5092098;28;20068;-85
2021/10/19 11:30:40;;;;;;;10.02;6.60;;;;;;;;;;5092078;28;20027;-84
2021/10/19 11:33:07;;;;;;;10.98;5.80;;;;;;;;;;5092110;28;20472;-85
2021/10/19 11:35:33;;;;;;;11.90;5.75;;;;;;;;;;5092125;28;20527;-84
2021/10/19 11:38:00;;;;;;;11.02;6.03;;;;;;;;;;5091915;28;20056;-84
2021/10/19 11:40:26;;;;;;;11.80;5.72;;;;;;;;;;5091548;28;20024;-85
2021/10/19 11:42:54;;;;;;;9.02;5.20;;;;;;;;;;5091965;28;20025;-84
2021/10/19 11:45:24;;;;;;;10.68;6.05;;;;;;;;;;5091710;28;20033;-85
2021/10/19 11:47:52;;;;;;;9.02;5.68;;;;;;;;;;5093064;28;20040;-85
2021/10/19 11:50:19;;;;;;;13.35;5.70;;;;;;;;;;5091911;28;20024;-85
2021/10/19 11:52:47;;;;;;;8.30;5.40;;;;;;;;;;5093442;28;20032;-85
2021/10/19 11:55:13;;;;;;;10.90;5.57;;;;;;;;;;5092364;28;20039;-84
2021/10/19 11:57:39;;;;;;;9.00;5.47;;;;;;;;;;5094254;28;20030;-84
2021/10/19 12:00:07;;;;;;;10.70;5.13;;;;;;;;;;5093119;28;20534;-85
2021/10/19 12:02:34;;;;;;;9.02;5.53;;;;;;;;;;5091442;28;20058;-83
2021/10/19 12:05:09;;;;;;;10.95;5.57;;;;;;;;;;5091773;28;20106;-85
2021/10/19 12:07:35;;;;;;;9.20;5.80;;;;;;;;;;5093393;28;20461;-84
2021/10/19 12:10:11;;;;;;;14.02;6.25;;;;;;;;;;5091755;28;20028;-85
2021/10/19 12:12:37;;;;;;;10.82;6.53;;;;;;;;;;5091553;28;20385;-84
2021/10/19 12:15:03;;;;;;;14.60;7.38;;;;;;;;;;5091571;28;20456;-85
2021/10/19 12:17:29;;;;;;;11.63;6.75;;;;;;;;;;5091658;28;20028;-85
2021/10/19 12:19:56;;;;;;;11.02;6.30;;;;;;;;;;5093076;28;20089;-83
2021/10/19 12:22:31;;;;;;;12.68;7.75;;;;;;;;;;5091665;28;20020;-84
2021/10/19 12:24:57;;;;;;;9.82;6.65;;;;;;;;;;5091687;28;20032;-84
2021/10/19 12:27:23;;;;;;;13.93;6.95;;;;;;;;;;5091719;28;20485;-84
2021/10/19 12:29:54;;;;;;;11.73;7.85;;;;;;;;;;5093229;28;20020;-84
2021/10/19 12:32:30;;;;;;;12.13;7.88;;;;;;;;;;5095094;28;20123;-83
2021/10/19 12:34:59;;;;;;;11.93;7.07;;;;;;;;;;5095006;28;20539;-84
2021/10/19 12:37:31;;;;;;;11.43;7.15;;;;;;;;;;5094615;28;20487;-84
2021/10/19 12:39:57;;;;;;;11.95;7.88;;;;;;;;;;5095075;28;20392;-85
2021/10/19 12:42:23;;;;;;;12.25;7.63;;;;;;;;;;5095143;28;20135;-83
2021/10/19 12:44:49;;;;;;;15.32;8.85;;;;;;;;;;5094925;28;20032;-83
2021/10/19 12:47:16;;;;;;;11.52;7.03;;;;;;;;;;5094024;28;20040;-83
2021/10/19 12:49:42;;;;;;;12.70;7.25;;;;;;;;;;5095385;28;20023;-83
2021/10/19 12:52:09;;;;;;;11.52;7.45;;;;;;;;;;5096223;28;20089;-83
2021/10/19 12:54:35;;;;;;;11.88;6.78;;;;;;;;;;5094651;28;20027;-83
2021/10/19 12:57:01;;;;;;;13.32;7.28;;;;;;;;;;5095899;28;20016;-85
2021/10/19 12:59:27;;;;;;;10.60;6.45;;;;;;;;;;5094707;28;20392;-84
2021/10/19 13:01:58;;;;;;;10.40;6.30;;;;;;;;;;5094544;28;20135;-84
2021/10/19 13:04:25;;;;;;;19.75;6.68;;;;;;;;;;5094137;28;20028;-83
2021/10/19 13:06:51;;;;;;;11.82;7.10;;;;;;;;;;5093836;28;20488;-88
2021/10/19 13:09:18;;;;;;;12.00;6.95;;;;;;;;;;5094206;28;20028;-83
2021/10/19 13:11:44;;;;;;;12.98;6.45;;;;;;;;;;5093869;28;20032;-84
2021/10/19 13:14:11;;;;;;;15.73;6.75;;;;;;;;;;5095671;28;20492;-84
2021/10/19 13:16:37;;;;;;;17.70;10.52;;;;;;;;;;5094220;28;20024;-83
2021/10/19 13:19:03;;;;;;;23.25;7.38;;;;;;;;;;5094610;28;20056;-88
2021/10/19 13:21:29;;;;;;;15.52;5.80;;;;;;;;;;5094853;28;20043;-84
2021/10/19 13:23:55;;;;;;;14.00;5.05;;;;;;;;;;5094812;28;20217;-85
2021/10/19 13:26:21;;;;;;;9.30;4.85;;;;;;;;;;5093947;28;20081;-84
2021/10/19 13:28:48;;;;;;;8.05;5.07;;;;;;;;;;5094015;28;20036;-84
2021/10/19 13:31:14;;;;;;;7.00;4.72;;;;;;;;;;5095652;28;20059;-87
2021/10/19 13:33:40;;;;;;;8.57;4.45;;;;;;;;;;5094210;28;20042;-84
2021/10/19 13:36:06;;;;;;;9.82;4.53;;;;;;;;;;5094006;28;20031;-85
2021/10/19 13:38:33;;;;;;;15.63;5.45;;;;;;;;;;5093708;28;20106;-84
2021/10/19 13:40:59;;;;;;;9.25;4.60;;;;;;;;;;5093276;28;20024;-84
2021/10/19 13:43:26;;;;;;;7.40;4.43;;;;;;;;;;5093883;28;20031;-84
2021/10/19 13:45:52;;;;;;;10.63;4.85;;;;;;;;;;5093876;28;20541;-84
2021/10/19 13:48:19;;;;;;;9.32;4.53;;;;;;;;;;5093632;28;20492;-83
2021/10/19 13:50:47;;;;;;;7.70;4.65;;;;;;;;;;5093555;28;20503;-83
2021/10/19 13:53:13;;;;;;;10.35;4.93;;;;;;;;;;5093576;28;20035;-84
2021/10/19 13:55:39;;;;;;;11.80;5.10;;;;;;;;;;5093482;28;20389;-83
2021/10/19 13:58:05;;;;;;;7.95;4.85;;;;;;;;;;5093627;28;20021;-82
2021/10/19 14:00:32;;;;;;;9.05;5.53;;;;;;;;;;5093232;28;20186;-87
2021/10/19 14:02:58;;;;;;;34.03;19.30;;;;;;;;;;5093900;28;20059;-86
2021/10/19 14:05:24;;;;;;;9.23;5.40;;;;;;;;;;5093463;28;20028;-85
2021/10/19 14:07:50;;;;;;;7.28;5.00;;;;;;;;;;5093516;28;20119;-85
2021/10/19 14:10:18;;;;;;;17.08;9.32;;;;;;;;;;5094742;28;20469;-84
2021/10/19 14:12:45;;;;;;;17.33;7.72;;;;;;;;;;5093743;28;20511;-83
2021/10/19 14:15:11;;;;;;;13.23;5.10;;;;;;;;;;5093414;28;20384;-85
2021/10/19 14:17:38;;;;;;;11.10;5.43;;;;;;;;;;5093295;28;20028;-84
2021/10/19 14:20:06;;;;;;;16.33;7.78;;;;;;;;;;5093229;28;20028;-84
2021/10/19 14:22:33;;;;;;;13.18;5.38;;;;;;;;;;5093233;28;20054;-84
2021/10/19 14:24:59;;;;;;;8.43;4.88;;;;;;;;;;5093162;28;20031;-85
2021/10/19 14:27:25;;;;;;;14.43;5.68;;;;;;;;;;5092989;28;20093;-85